createdAt,value
2017-01-30T00:00:06.372Z,63.86
2017-01-30T00:00:47.025Z,64.05
2017-01-30T00:01:27.673Z,64.53
2017-01-30T00:02:08.445Z,64.47
2017-01-30T00:02:49.104Z,64.25
2017-01-30T00:03:29.742Z,64.43
2017-01-30T00:04:10.418Z,64.53
2017-01-30T00:04:51.063Z,64.28
2017-01-30T00:05:31.699Z,64.34
2017-01-30T00:06:12.392Z,64.34
2017-01-30T00:06:53.100Z,64.37
2017-01-30T00:07:33.824Z,64.56
2017-01-30T00:08:14.474Z,64.28
2017-01-30T00:08:55.150Z,64.09
2017-01-30T00:09:35.888Z,64.43
2017-01-30T00:10:16.515Z,63.76
2017-01-30T00:10:57.146Z,64.15
2017-01-30T00:11:37.783Z,63.76
2017-01-30T00:12:18.414Z,64.43
2017-01-30T00:12:59.102Z,64.34
2017-01-30T00:13:39.833Z,63.76
2017-01-30T00:14:20.537Z,63.96
2017-01-30T00:15:01.201Z,64.18
2017-01-30T00:15:41.896Z,64.25
2017-01-30T00:16:22.595Z,63.96
2017-01-30T00:17:03.227Z,63.96
2017-01-30T00:17:43.948Z,64.18
2017-01-30T00:18:24.627Z,64.25
2017-01-30T00:19:05.280Z,63.86
2017-01-30T00:19:45.931Z,64.05
2017-01-30T00:20:26.587Z,63.96
2017-01-30T00:21:07.256Z,63.96
2017-01-30T00:21:47.901Z,63.96
2017-01-30T00:22:28.582Z,63.99
2017-01-30T00:23:09.267Z,64.34
2017-01-30T00:23:49.902Z,63.76
2017-01-30T00:24:30.608Z,64.05
2017-01-30T00:25:11.237Z,64.05
2017-01-30T00:25:51.871Z,64.34
2017-01-30T00:26:32.518Z,64.28
2017-01-30T00:27:13.158Z,64.28
2017-01-30T00:27:53.789Z,64.43
2017-01-30T00:28:34.525Z,64.47
2017-01-30T00:29:15.238Z,64.47
2017-01-30T00:29:55.869Z,64.25
2017-01-30T00:30:36.501Z,64.25
2017-01-30T00:31:17.179Z,64.15
2017-01-30T00:31:57.834Z,64.05
2017-01-30T00:32:38.460Z,64.25
2017-01-30T00:33:19.172Z,64.15
2017-01-30T00:33:59.847Z,64.43
2017-01-30T00:34:40.476Z,64.92
2017-01-30T00:35:21.193Z,64.66
2017-01-30T00:36:01.822Z,64.28
2017-01-30T00:36:42.466Z,64.25
2017-01-30T00:37:23.202Z,64.34
2017-01-30T00:38:03.911Z,64.25
2017-01-30T00:38:44.562Z,64.25
2017-01-30T00:39:25.187Z,64.09
2017-01-30T00:40:05.893Z,64.09
2017-01-30T00:40:46.570Z,64.09
2017-01-30T00:41:27.197Z,64.53
2017-01-30T00:42:07.847Z,64.18
2017-01-30T00:42:48.566Z,64.15
2017-01-30T00:43:29.204Z,64.28
2017-01-30T00:44:09.865Z,64.05
2017-01-30T00:44:50.587Z,64.47
2017-01-30T00:45:31.326Z,64.05
2017-01-30T00:46:11.977Z,64.37
2017-01-30T00:46:52.668Z,64.28
2017-01-30T00:47:33.298Z,64.34
2017-01-30T00:48:13.941Z,64.25
2017-01-30T00:48:57.463Z,64.05
2017-01-30T00:49:38.165Z,64.47
2017-01-30T00:50:18.802Z,64.25
2017-01-30T00:50:59.516Z,64.25
2017-01-30T00:51:40.195Z,64.34
2017-01-30T00:52:20.825Z,64.34
2017-01-30T00:53:01.554Z,64.56
2017-01-30T00:53:42.273Z,63.99
2017-01-30T00:54:23.004Z,64.34
2017-01-30T00:55:03.637Z,64.34
2017-01-30T00:55:44.271Z,64.15
2017-01-30T00:56:25.025Z,64.25
2017-01-30T00:57:05.653Z,64.25
2017-01-30T00:57:46.344Z,64.09
2017-01-30T00:58:27.054Z,64.15
2017-01-30T00:59:07.706Z,64.43
2017-01-30T00:59:48.353Z,64.43
2017-01-30T01:00:29.091Z,64.28
2017-01-30T01:01:09.757Z,64.09
2017-01-30T01:01:50.383Z,64.47
2017-01-30T01:02:31.050Z,64.09
2017-01-30T01:03:11.712Z,64.47
2017-01-30T01:03:52.340Z,64.37
2017-01-30T01:04:33.043Z,64.28
2017-01-30T01:05:13.663Z,64.63
2017-01-30T01:05:54.292Z,64.18
2017-01-30T01:06:35.002Z,64.25
2017-01-30T01:07:15.704Z,64.25
2017-01-30T01:07:56.359Z,64.28
2017-01-30T01:08:37.001Z,64.47
2017-01-30T01:09:17.666Z,64.37
2017-01-30T01:09:58.398Z,64.47
2017-01-30T01:10:39.021Z,64.34
2017-01-30T01:11:19.661Z,64.09
2017-01-30T01:12:00.614Z,64.72
2017-01-30T01:12:41.208Z,64.47
2017-01-30T01:13:21.834Z,64.63
2017-01-30T01:14:02.473Z,64.05
2017-01-30T01:14:43.141Z,64.18
2017-01-30T01:15:23.769Z,64.15
2017-01-30T01:16:04.402Z,64.15
2017-01-30T01:16:45.073Z,64.15
2017-01-30T01:17:25.696Z,64.15
2017-01-30T01:18:06.334Z,64.18
2017-01-30T01:18:46.994Z,64.25
2017-01-30T01:19:27.631Z,64.63
2017-01-30T01:20:08.258Z,64.37
2017-01-30T01:20:48.922Z,64.85
2017-01-30T01:21:29.544Z,64.82
2017-01-30T01:22:10.183Z,64.82
2017-01-30T01:22:50.857Z,64.92
2017-01-30T01:23:31.505Z,64.82
2017-01-30T01:24:12.133Z,64.37
2017-01-30T01:24:52.836Z,64.25
2017-01-30T01:25:33.478Z,64.53
2017-01-30T01:26:14.110Z,64.66
2017-01-30T01:26:54.824Z,64.43
2017-01-30T01:27:35.452Z,64.72
2017-01-30T01:28:16.092Z,65.01
2017-01-30T01:28:56.739Z,64.92
2017-01-30T01:29:37.362Z,64.95
2017-01-30T01:30:18.013Z,64.72
2017-01-30T01:30:58.637Z,64.82
2017-01-30T01:31:39.256Z,64.92
2017-01-30T01:32:19.886Z,64.82
2017-01-30T01:33:00.521Z,64.82
2017-01-30T01:33:41.161Z,64.53
2017-01-30T01:34:21.866Z,64.66
2017-01-30T01:35:02.564Z,64.82
2017-01-30T01:35:43.189Z,64.82
2017-01-30T01:36:23.841Z,64.92
2017-01-30T01:37:04.562Z,64.82
2017-01-30T01:37:45.282Z,64.92
2017-01-30T01:38:25.902Z,64.92
2017-01-30T01:39:06.536Z,64.72
2017-01-30T01:39:47.160Z,64.53
2017-01-30T01:40:27.793Z,64.95
2017-01-30T01:41:08.513Z,64.72
2017-01-30T01:41:49.231Z,64.85
2017-01-30T01:42:29.862Z,64.92
2017-01-30T01:43:10.497Z,64.82
2017-01-30T01:43:51.124Z,64.95
2017-01-30T01:44:31.755Z,64.82
2017-01-30T01:45:12.420Z,64.76
2017-01-30T01:45:53.113Z,64.82
2017-01-30T01:46:33.737Z,64.92
2017-01-30T01:47:14.373Z,64.72
2017-01-30T01:47:54.999Z,64.92
2017-01-30T01:48:35.630Z,64.92
2017-01-30T01:49:16.257Z,64.72
2017-01-30T01:49:56.883Z,65.01
2017-01-30T01:50:37.499Z,64.72
2017-01-30T01:51:18.134Z,64.63
2017-01-30T01:51:58.785Z,64.85
2017-01-30T01:52:39.411Z,64.95
2017-01-30T01:53:20.043Z,64.43
2017-01-30T01:54:00.715Z,64.92
2017-01-30T01:54:41.349Z,64.72
2017-01-30T01:55:21.974Z,65.05
2017-01-30T01:56:02.650Z,64.76
2017-01-30T01:56:43.294Z,64.56
2017-01-30T01:57:23.924Z,64.43
2017-01-30T01:58:04.568Z,64.28
2017-01-30T01:58:45.197Z,64.15
2017-01-30T01:59:25.929Z,64.43
2017-01-30T02:00:06.574Z,64.47
2017-01-30T02:00:47.242Z,65.01
2017-01-30T02:01:27.823Z,64.92
2017-01-30T02:02:08.449Z,65.01
2017-01-30T02:02:49.081Z,65.01
2017-01-30T02:03:29.707Z,64.82
2017-01-30T02:04:10.350Z,64.43
2017-01-30T02:04:50.986Z,64.63
2017-01-30T02:05:31.618Z,64.95
2017-01-30T02:06:12.281Z,64.72
2017-01-30T02:06:52.924Z,64.53
2017-01-30T02:07:33.557Z,64.28
2017-01-30T02:08:14.183Z,64.18
2017-01-30T02:08:54.806Z,63.96
2017-01-30T02:09:35.462Z,64.15
2017-01-30T02:10:16.089Z,64.92
2017-01-30T02:10:56.713Z,64.43
2017-01-30T02:11:37.339Z,64.95
2017-01-30T02:12:17.978Z,64.34
2017-01-30T02:12:58.610Z,64.25
2017-01-30T02:13:39.239Z,64.15
2017-01-30T02:14:19.894Z,64.82
2017-01-30T02:15:00.516Z,64.43
2017-01-30T02:15:41.147Z,64.25
2017-01-30T02:16:21.819Z,64.76
2017-01-30T02:17:02.451Z,64.15
2017-01-30T02:17:43.074Z,64.34
2017-01-30T02:18:23.746Z,64.05
2017-01-30T02:19:04.381Z,64.63
2017-01-30T02:19:45.005Z,64.56
2017-01-30T02:20:26.374Z,64.25
2017-01-30T02:21:07.000Z,64.05
2017-01-30T02:21:47.658Z,64.05
2017-01-30T02:22:28.289Z,64.25
2017-01-30T02:23:08.920Z,64.18
2017-01-30T02:23:49.570Z,64.05
2017-01-30T02:24:30.205Z,64.47
2017-01-30T02:25:10.841Z,64.63
2017-01-30T02:25:51.472Z,64.63
2017-01-30T02:26:32.109Z,64.95
2017-01-30T02:27:12.745Z,64.63
2017-01-30T02:27:53.372Z,64.56
2017-01-30T02:28:34.007Z,64.47
2017-01-30T02:29:14.681Z,64.63
2017-01-30T02:29:55.305Z,63.96
2017-01-30T02:30:35.932Z,64.28
2017-01-30T02:31:16.638Z,64.34
2017-01-30T02:31:57.332Z,64.34
2017-01-30T02:32:37.976Z,64.53
2017-01-30T02:33:18.602Z,64.63
2017-01-30T02:33:59.320Z,64.82
2017-01-30T02:34:39.949Z,65.05
2017-01-30T02:35:20.589Z,64.95
2017-01-30T02:36:01.299Z,64.72
2017-01-30T02:36:41.932Z,65.01
2017-01-30T02:37:22.560Z,64.47
2017-01-30T02:38:03.248Z,64.92
2017-01-30T02:38:43.876Z,64.95
2017-01-30T02:39:24.517Z,64.82
2017-01-30T02:40:05.220Z,64.47
2017-01-30T02:40:45.861Z,64.18
2017-01-30T02:41:26.488Z,64.28
2017-01-30T02:42:07.175Z,64.37
2017-01-30T02:42:47.798Z,64.09
2017-01-30T02:43:28.432Z,64.37
2017-01-30T02:44:09.104Z,64.25
2017-01-30T02:44:49.737Z,64.28
2017-01-30T02:45:30.376Z,64.09
2017-01-30T02:46:11.059Z,64.28
2017-01-30T02:46:51.701Z,64.34
2017-01-30T02:47:32.387Z,64.34
2017-01-30T02:48:12.972Z,64.92
2017-01-30T02:48:53.600Z,64.43
2017-01-30T02:49:34.226Z,64.82
2017-01-30T02:50:14.864Z,64.43
2017-01-30T02:50:55.499Z,64.25
2017-01-30T02:51:36.133Z,64.43
2017-01-30T02:52:16.759Z,64.37
2017-01-30T02:52:57.417Z,64.37
2017-01-30T02:53:38.039Z,64.05
2017-01-30T02:54:18.682Z,64.25
2017-01-30T02:54:59.384Z,64.28
2017-01-30T02:55:40.016Z,64.05
2017-01-30T02:56:20.660Z,64.05
2017-01-30T02:57:01.289Z,64.47
2017-01-30T02:57:41.992Z,64.25
2017-01-30T02:58:22.549Z,64.43
2017-01-30T02:59:03.236Z,64.18
2017-01-30T02:59:43.862Z,64.05
2017-01-30T03:00:24.487Z,64.15
2017-01-30T03:01:05.171Z,64.47
2017-01-30T03:01:45.808Z,64.43
2017-01-30T03:02:26.440Z,64.43
2017-01-30T03:03:07.138Z,64.15
2017-01-30T03:03:47.775Z,64.28
2017-01-30T03:04:28.409Z,64.34
2017-01-30T03:05:09.122Z,64.15
2017-01-30T03:05:49.746Z,64.18
2017-01-30T03:06:30.392Z,64.15
2017-01-30T03:07:11.080Z,63.89
2017-01-30T03:07:51.706Z,64.25
2017-01-30T03:08:32.333Z,63.89
2017-01-30T03:09:13.003Z,64.15
2017-01-30T03:09:53.630Z,63.76
2017-01-30T03:10:34.274Z,64.34
2017-01-30T03:11:14.928Z,64.15
2017-01-30T03:11:55.585Z,64.43
2017-01-30T03:12:36.205Z,64.34
2017-01-30T03:13:16.836Z,64.47
2017-01-30T03:13:57.521Z,64.05
2017-01-30T03:14:38.169Z,64.09
2017-01-30T03:15:18.802Z,64.34
2017-01-30T03:15:59.474Z,64.18
2017-01-30T03:16:40.116Z,64.09
2017-01-30T03:17:20.739Z,63.86
2017-01-30T03:18:01.399Z,63.99
2017-01-30T03:18:42.026Z,63.99
2017-01-30T03:19:22.653Z,63.99
2017-01-30T03:20:03.327Z,63.86
2017-01-30T03:20:43.951Z,63.99
2017-01-30T03:21:24.571Z,63.79
2017-01-30T03:22:05.201Z,63.76
2017-01-30T03:22:45.835Z,63.89
2017-01-30T03:23:26.463Z,63.89
2017-01-30T03:24:07.130Z,63.99
2017-01-30T03:24:47.747Z,63.79
2017-01-30T03:25:28.484Z,63.67
2017-01-30T03:26:09.214Z,63.96
2017-01-30T03:26:49.887Z,63.89
2017-01-30T03:27:31.258Z,63.6
2017-01-30T03:28:11.916Z,63.57
2017-01-30T03:28:52.556Z,63.89
2017-01-30T03:29:33.243Z,63.7
2017-01-30T03:30:13.950Z,63.76
2017-01-30T03:30:54.584Z,64.09
2017-01-30T03:31:35.214Z,63.67
2017-01-30T03:32:15.843Z,63.76
2017-01-30T03:32:56.478Z,63.67
2017-01-30T03:33:37.112Z,63.76
2017-01-30T03:34:17.738Z,63.99
2017-01-30T03:34:58.381Z,63.79
2017-01-30T03:35:39.010Z,63.57
2017-01-30T03:36:19.651Z,63.76
2017-01-30T03:37:00.274Z,63.76
2017-01-30T03:37:40.963Z,63.76
2017-01-30T03:38:21.601Z,63.57
2017-01-30T03:39:02.235Z,63.99
2017-01-30T03:39:42.952Z,64.05
2017-01-30T03:40:23.578Z,63.76
2017-01-30T03:41:04.203Z,63.76
2017-01-30T03:41:44.824Z,63.99
2017-01-30T03:42:25.460Z,63.99
2017-01-30T03:43:06.091Z,63.96
2017-01-30T03:43:46.777Z,64.09
2017-01-30T03:44:27.423Z,63.99
2017-01-30T03:45:08.104Z,63.76
2017-01-30T03:45:48.676Z,63.57
2017-01-30T03:46:29.323Z,63.86
2017-01-30T03:47:09.948Z,63.96
2017-01-30T03:47:50.585Z,63.7
2017-01-30T03:48:31.216Z,63.79
2017-01-30T03:49:11.843Z,64.05
2017-01-30T03:49:52.466Z,63.96
2017-01-30T03:50:33.132Z,63.57
2017-01-30T03:51:13.752Z,64.05
2017-01-30T03:51:54.384Z,63.96
2017-01-30T03:52:35.074Z,63.96
2017-01-30T03:53:15.705Z,63.96
2017-01-30T03:53:56.334Z,63.86
2017-01-30T03:54:37.034Z,63.86
2017-01-30T03:55:17.664Z,63.99
2017-01-30T03:55:58.284Z,63.99
2017-01-30T03:56:38.964Z,63.79
2017-01-30T03:57:19.588Z,64.09
2017-01-30T03:58:00.232Z,63.96
2017-01-30T03:58:40.917Z,63.57
2017-01-30T03:59:21.548Z,63.89
2017-01-30T04:00:02.193Z,63.96
2017-01-30T04:00:42.843Z,63.79
2017-01-30T04:01:23.478Z,63.79
2017-01-30T04:02:04.108Z,63.76
2017-01-30T04:02:44.815Z,63.99
2017-01-30T04:03:25.450Z,63.79
2017-01-30T04:04:06.074Z,63.96
2017-01-30T04:04:46.772Z,63.79
2017-01-30T04:05:27.400Z,63.96
2017-01-30T04:06:08.026Z,63.99
2017-01-30T04:06:48.727Z,63.67
2017-01-30T04:07:29.356Z,63.76
2017-01-30T04:08:09.982Z,63.89
2017-01-30T04:08:50.642Z,63.86
2017-01-30T04:09:31.290Z,63.79
2017-01-30T04:10:11.915Z,63.86
2017-01-30T04:10:52.582Z,63.86
2017-01-30T04:11:33.277Z,63.86
2017-01-30T04:12:13.902Z,63.6
2017-01-30T04:12:54.618Z,63.6
2017-01-30T04:13:35.263Z,63.96
2017-01-30T04:14:15.915Z,63.86
2017-01-30T04:14:56.534Z,63.89
2017-01-30T04:15:37.161Z,63.99
2017-01-30T04:16:17.799Z,63.86
2017-01-30T04:16:58.440Z,63.89
2017-01-30T04:17:39.063Z,64.15
2017-01-30T04:18:19.682Z,63.96
2017-01-30T04:19:00.318Z,63.99
2017-01-30T04:19:40.975Z,63.96
2017-01-30T04:20:21.605Z,63.89
2017-01-30T04:21:02.228Z,63.89
2017-01-30T04:21:42.938Z,63.99
2017-01-30T04:22:23.652Z,63.96
2017-01-30T04:23:04.206Z,63.79
2017-01-30T04:23:44.843Z,63.99
2017-01-30T04:24:25.466Z,64.09
2017-01-30T04:25:06.094Z,63.76
2017-01-30T04:25:46.727Z,63.48
2017-01-30T04:26:27.351Z,64.09
2017-01-30T04:27:07.999Z,64.09
2017-01-30T04:27:48.622Z,63.86
2017-01-30T04:28:29.249Z,63.57
2017-01-30T04:29:09.872Z,63.86
2017-01-30T04:29:50.514Z,63.7
2017-01-30T04:30:31.159Z,63.96
2017-01-30T04:31:11.770Z,63.99
2017-01-30T04:31:52.457Z,63.86
2017-01-30T04:32:33.082Z,63.48
2017-01-30T04:33:13.716Z,63.99
2017-01-30T04:33:54.925Z,63.76
2017-01-30T04:34:35.568Z,63.48
2017-01-30T04:35:16.202Z,63.86
2017-01-30T04:35:56.824Z,64.18
2017-01-30T04:36:37.523Z,63.67
2017-01-30T04:37:18.151Z,63.6
2017-01-30T04:37:58.778Z,63.86
2017-01-30T04:38:39.444Z,63.7
2017-01-30T04:39:20.070Z,63.67
2017-01-30T04:40:00.710Z,63.79
2017-01-30T04:40:41.345Z,63.79
2017-01-30T04:41:22.014Z,63.96
2017-01-30T04:42:02.643Z,63.57
2017-01-30T04:42:43.294Z,63.6
2017-01-30T04:43:23.937Z,64.09
2017-01-30T04:44:04.571Z,63.86
2017-01-30T04:44:45.206Z,63.57
2017-01-30T04:45:25.835Z,63.96
2017-01-30T04:46:06.458Z,63.99
2017-01-30T04:46:47.153Z,63.7
2017-01-30T04:47:27.773Z,63.51
2017-01-30T04:48:08.396Z,63.76
2017-01-30T04:48:49.062Z,63.89
2017-01-30T04:49:29.707Z,63.89
2017-01-30T04:50:10.334Z,64.05
2017-01-30T04:50:51.051Z,63.76
2017-01-30T04:51:31.683Z,63.57
2017-01-30T04:52:12.326Z,63.89
2017-01-30T04:52:53.018Z,63.76
2017-01-30T04:53:33.651Z,63.57
2017-01-30T04:54:14.277Z,63.51
2017-01-30T04:54:54.945Z,63.89
2017-01-30T04:55:35.631Z,63.86
2017-01-30T04:56:16.328Z,63.57
2017-01-30T04:56:56.952Z,63.7
2017-01-30T04:57:37.585Z,63.79
2017-01-30T04:58:18.269Z,64.18
2017-01-30T04:58:58.897Z,63.6
2017-01-30T04:59:39.523Z,63.86
2017-01-30T05:00:20.207Z,63.57
2017-01-30T05:01:00.829Z,64.05
2017-01-30T05:01:41.459Z,63.89
2017-01-30T05:02:22.161Z,63.48
2017-01-30T05:03:02.791Z,64.05
2017-01-30T05:03:43.421Z,63.96
2017-01-30T05:04:24.066Z,63.86
2017-01-30T05:05:04.698Z,64.05
2017-01-30T05:05:45.971Z,63.57
2017-01-30T05:06:26.608Z,63.79
2017-01-30T05:07:07.244Z,63.86
2017-01-30T05:07:47.897Z,63.67
2017-01-30T05:08:28.525Z,64.15
2017-01-30T05:09:09.159Z,63.57
2017-01-30T05:09:49.788Z,63.6
2017-01-30T05:10:30.428Z,63.79
2017-01-30T05:11:11.064Z,63.86
2017-01-30T05:11:51.689Z,63.57
2017-01-30T05:12:32.322Z,63.86
2017-01-30T05:13:12.946Z,63.99
2017-01-30T05:13:53.574Z,63.76
2017-01-30T05:14:34.200Z,63.76
2017-01-30T05:15:14.837Z,63.96
2017-01-30T05:15:55.466Z,63.86
2017-01-30T05:16:36.085Z,63.96
2017-01-30T05:17:16.788Z,63.89
2017-01-30T05:17:57.404Z,63.76
2017-01-30T05:18:38.036Z,63.6
2017-01-30T05:19:18.692Z,63.67
2017-01-30T05:19:59.318Z,63.76
2017-01-30T05:20:39.950Z,63.6
2017-01-30T05:21:20.615Z,63.96
2017-01-30T05:22:01.249Z,63.99
2017-01-30T05:22:41.881Z,63.79
2017-01-30T05:23:22.541Z,63.76
2017-01-30T05:24:03.159Z,64.05
2017-01-30T05:24:43.788Z,63.76
2017-01-30T05:25:24.492Z,63.96
2017-01-30T05:26:05.127Z,63.99
2017-01-30T05:26:45.765Z,64.09
2017-01-30T05:27:26.398Z,63.89
2017-01-30T05:28:07.037Z,64.05
2017-01-30T05:28:47.669Z,63.96
2017-01-30T05:29:28.309Z,63.86
2017-01-30T05:30:09.036Z,63.96
2017-01-30T05:30:49.697Z,63.7
2017-01-30T05:31:30.324Z,63.57
2017-01-30T05:32:10.997Z,63.99
2017-01-30T05:32:51.624Z,63.67
2017-01-30T05:33:32.252Z,63.76
2017-01-30T05:34:12.934Z,63.99
2017-01-30T05:34:53.574Z,63.79
2017-01-30T05:35:34.226Z,63.57
2017-01-30T05:36:14.839Z,63.67
2017-01-30T05:36:55.465Z,63.86
2017-01-30T05:37:36.093Z,63.79
2017-01-30T05:38:16.796Z,63.96
2017-01-30T05:38:57.432Z,63.67
2017-01-30T05:39:38.063Z,63.7
2017-01-30T05:40:18.745Z,63.57
2017-01-30T05:40:59.366Z,63.99
2017-01-30T05:41:40.000Z,63.67
2017-01-30T05:42:20.670Z,63.86
2017-01-30T05:43:01.308Z,63.67
2017-01-30T05:43:41.943Z,63.99
2017-01-30T05:44:22.641Z,63.89
2017-01-30T05:45:03.268Z,63.7
2017-01-30T05:45:43.911Z,64.09
2017-01-30T05:46:24.549Z,63.76
2017-01-30T05:47:05.174Z,64.05
2017-01-30T05:47:45.817Z,64.05
2017-01-30T05:48:26.485Z,63.96
2017-01-30T05:49:07.117Z,63.67
2017-01-30T05:49:47.745Z,63.79
2017-01-30T05:50:28.409Z,63.96
2017-01-30T05:51:09.041Z,64.18
2017-01-30T05:51:49.669Z,64.05
2017-01-30T05:52:30.341Z,63.7
2017-01-30T05:53:10.979Z,64.15
2017-01-30T05:53:51.611Z,64.05
2017-01-30T05:54:32.308Z,63.96
2017-01-30T05:55:12.938Z,63.99
2017-01-30T05:55:53.584Z,64.05
2017-01-30T05:56:34.252Z,64.43
2017-01-30T05:57:14.879Z,64.05
2017-01-30T05:57:55.515Z,64.25
2017-01-30T05:58:36.166Z,64.09
2017-01-30T05:59:16.793Z,64.28
2017-01-30T05:59:57.430Z,64.25
2017-01-30T06:00:38.081Z,63.86
2017-01-30T06:01:18.732Z,64.05
2017-01-30T06:01:59.361Z,63.67
2017-01-30T06:02:40.117Z,64.28
2017-01-30T06:03:20.742Z,64.05
2017-01-30T06:04:01.370Z,64.28
2017-01-30T06:04:42.039Z,64.09
2017-01-30T06:05:22.670Z,64.15
2017-01-30T06:06:03.324Z,63.86
2017-01-30T06:06:44.042Z,63.99
2017-01-30T06:07:24.674Z,63.89
2017-01-30T06:08:05.310Z,64.25
2017-01-30T06:08:45.990Z,63.86
2017-01-30T06:09:26.625Z,63.96
2017-01-30T06:10:07.248Z,64.25
2017-01-30T06:10:47.938Z,63.86
2017-01-30T06:11:28.571Z,63.96
2017-01-30T06:12:09.222Z,63.99
2017-01-30T06:12:49.837Z,64.05
2017-01-30T06:13:30.484Z,64.18
2017-01-30T06:14:11.109Z,63.96
2017-01-30T06:14:51.737Z,63.99
2017-01-30T06:15:32.366Z,64.09
2017-01-30T06:16:12.997Z,63.99
2017-01-30T06:16:53.627Z,63.96
2017-01-30T06:17:34.288Z,63.96
2017-01-30T06:18:14.921Z,64.05
2017-01-30T06:18:55.554Z,63.86
2017-01-30T06:19:36.212Z,63.86
2017-01-30T06:20:16.846Z,63.96
2017-01-30T06:20:57.469Z,64.28
2017-01-30T06:21:38.141Z,64.15
2017-01-30T06:22:18.784Z,63.89
2017-01-30T06:22:59.417Z,63.96
2017-01-30T06:23:40.106Z,64.05
2017-01-30T06:24:20.736Z,64.05
2017-01-30T06:25:01.356Z,63.86
2017-01-30T06:25:42.087Z,63.96
2017-01-30T06:26:22.709Z,64.25
2017-01-30T06:27:03.335Z,63.96
2017-01-30T06:27:43.963Z,63.96
2017-01-30T06:28:24.636Z,64.09
2017-01-30T06:29:05.249Z,64.05
2017-01-30T06:29:45.879Z,64.05
2017-01-30T06:30:26.511Z,64.09
2017-01-30T06:31:07.131Z,64.25
2017-01-30T06:31:47.771Z,64.05
2017-01-30T06:32:28.475Z,63.96
2017-01-30T06:33:09.037Z,64.15
2017-01-30T06:33:49.658Z,63.96
2017-01-30T06:34:30.288Z,64.05
2017-01-30T06:35:10.925Z,64.05
2017-01-30T06:35:51.562Z,63.86
2017-01-30T06:36:32.194Z,64.25
2017-01-30T06:37:12.826Z,64.09
2017-01-30T06:37:53.506Z,63.96
2017-01-30T06:38:34.145Z,64.25
2017-01-30T06:39:14.773Z,64.05
2017-01-30T06:39:55.406Z,64.34
2017-01-30T06:40:36.052Z,64.34
2017-01-30T06:41:16.698Z,64.28
2017-01-30T06:41:57.325Z,64.05
2017-01-30T06:42:37.960Z,64.34
2017-01-30T06:43:18.582Z,63.76
2017-01-30T06:43:59.248Z,64.09
2017-01-30T06:44:39.895Z,64.05
2017-01-30T06:45:20.518Z,64.34
2017-01-30T06:46:01.158Z,63.86
2017-01-30T06:46:41.788Z,64.05
2017-01-30T06:47:22.412Z,63.79
2017-01-30T06:48:03.038Z,64.09
2017-01-30T06:48:43.665Z,64.18
2017-01-30T06:49:24.284Z,64.25
2017-01-30T06:50:04.914Z,64.05
2017-01-30T06:50:45.541Z,64.34
2017-01-30T06:51:26.182Z,63.96
2017-01-30T06:52:06.816Z,63.76
2017-01-30T06:52:47.455Z,64.05
2017-01-30T06:53:28.101Z,64.43
2017-01-30T06:54:08.733Z,64.25
2017-01-30T06:54:49.367Z,64.43
2017-01-30T06:55:30.044Z,64.43
2017-01-30T06:56:10.672Z,64.05
2017-01-30T06:56:51.293Z,64.34
2017-01-30T06:57:31.960Z,64.47
2017-01-30T06:58:12.583Z,64.37
2017-01-30T06:58:53.205Z,64.37
2017-01-30T06:59:33.837Z,64.15
2017-01-30T07:00:14.474Z,64.56
2017-01-30T07:00:55.099Z,64.43
2017-01-30T07:01:35.725Z,64.25
2017-01-30T07:02:16.394Z,64.34
2017-01-30T07:02:57.017Z,64.05
2017-01-30T07:03:37.654Z,64.05
2017-01-30T07:04:18.321Z,64.37
2017-01-30T07:04:58.942Z,64.34
2017-01-30T07:05:39.576Z,64.15
2017-01-30T07:06:20.252Z,64.34
2017-01-30T07:07:00.871Z,64.28
2017-01-30T07:07:41.515Z,64.28
2017-01-30T07:08:22.251Z,64.34
2017-01-30T07:09:02.881Z,64.05
2017-01-30T07:09:43.530Z,64.25
2017-01-30T07:10:24.165Z,64.37
2017-01-30T07:11:04.796Z,64.25
2017-01-30T07:11:45.450Z,64.05
2017-01-30T07:12:26.095Z,64.82
2017-01-30T07:13:06.728Z,64.09
2017-01-30T07:13:47.392Z,64.15
2017-01-30T07:14:28.025Z,64.09
2017-01-30T07:15:08.658Z,64.82
2017-01-30T07:15:49.308Z,64.25
2017-01-30T07:16:29.946Z,64.25
2017-01-30T07:17:10.566Z,64.43
2017-01-30T07:17:51.251Z,64.15
2017-01-30T07:18:31.878Z,64.43
2017-01-30T07:19:12.505Z,64.05
2017-01-30T07:19:53.167Z,64.25
2017-01-30T07:20:33.792Z,64.25
2017-01-30T07:21:14.421Z,64.43
2017-01-30T07:21:55.091Z,64.15
2017-01-30T07:22:35.714Z,64.25
2017-01-30T07:23:16.341Z,64.18
2017-01-30T07:23:57.042Z,64.05
2017-01-30T07:24:37.672Z,64.53
2017-01-30T07:25:18.333Z,64.28
2017-01-30T07:25:58.961Z,64.15
2017-01-30T07:26:39.590Z,64.34
2017-01-30T07:27:20.242Z,64.34
2017-01-30T07:28:00.859Z,64.34
2017-01-30T07:28:41.498Z,64.43
2017-01-30T07:29:22.121Z,64.34
2017-01-30T07:30:02.764Z,64.47
2017-01-30T07:30:43.416Z,64.34
2017-01-30T07:31:24.046Z,64.34
2017-01-30T07:32:04.679Z,64.43
2017-01-30T07:32:45.323Z,64.43
2017-01-30T07:33:25.953Z,64.43
2017-01-30T07:34:06.586Z,64.05
2017-01-30T07:34:47.219Z,64.34
2017-01-30T07:35:27.842Z,64.28
2017-01-30T07:36:08.479Z,64.25
2017-01-30T07:36:49.185Z,64.34
2017-01-30T07:37:29.817Z,64.43
2017-01-30T07:38:10.436Z,64.34
2017-01-30T07:38:51.136Z,64.34
2017-01-30T07:39:31.756Z,64.34
2017-01-30T07:40:12.392Z,64.43
2017-01-30T07:40:53.053Z,64.37
2017-01-30T07:41:33.680Z,64.15
2017-01-30T07:42:14.322Z,64.25
2017-01-30T07:42:55.026Z,64.43
2017-01-30T07:43:35.663Z,64.43
2017-01-30T07:44:16.298Z,64.43
2017-01-30T07:44:56.927Z,64.15
2017-01-30T07:45:37.588Z,64.47
2017-01-30T07:46:18.213Z,64.34
2017-01-30T07:46:58.843Z,64.43
2017-01-30T07:47:39.568Z,64.34
2017-01-30T07:48:20.214Z,64.43
2017-01-30T07:49:00.908Z,64.53
2017-01-30T07:49:41.544Z,64.34
2017-01-30T07:50:22.171Z,64.34
2017-01-30T07:51:02.811Z,64.43
2017-01-30T07:51:43.475Z,64.34
2017-01-30T07:52:24.104Z,64.43
2017-01-30T07:53:04.825Z,64.34
2017-01-30T07:53:45.460Z,64.47
2017-01-30T07:54:26.091Z,64.43
2017-01-30T07:55:06.792Z,64.37
2017-01-30T07:55:47.425Z,64.37
2017-01-30T07:56:28.049Z,64.05
2017-01-30T07:57:08.693Z,64.18
2017-01-30T07:57:49.349Z,64.15
2017-01-30T07:58:30.017Z,64.25
2017-01-30T07:59:10.624Z,64.09
2017-01-30T07:59:51.255Z,64.63
2017-01-30T08:00:31.890Z,64.15
2017-01-30T08:01:12.520Z,64.95
2017-01-30T08:01:53.161Z,63.96
2017-01-30T08:02:33.778Z,64.05
2017-01-30T08:03:14.423Z,64.28
2017-01-30T08:03:55.051Z,64.53
2017-01-30T08:04:35.676Z,64.82
2017-01-30T08:05:16.330Z,64.53
2017-01-30T08:05:56.959Z,64.82
2017-01-30T08:06:37.587Z,64.47
2017-01-30T08:07:18.218Z,64.15
2017-01-30T08:07:58.850Z,64.09
2017-01-30T08:08:39.486Z,64.82
2017-01-30T08:09:20.138Z,64.18
2017-01-30T08:10:00.764Z,64.43
2017-01-30T08:10:41.397Z,64.25
2017-01-30T08:11:22.075Z,64.82
2017-01-30T08:12:02.706Z,64.25
2017-01-30T08:12:43.347Z,64.28
2017-01-30T08:13:23.992Z,64.25
2017-01-30T08:14:04.618Z,64.25
2017-01-30T08:14:45.260Z,64.34
2017-01-30T08:15:25.890Z,64.15
2017-01-30T08:16:06.555Z,64.34
2017-01-30T08:16:47.180Z,64.15
2017-01-30T08:17:27.808Z,64.25
2017-01-30T08:18:08.435Z,64.28
2017-01-30T08:18:49.072Z,64.66
2017-01-30T08:19:29.782Z,64.25
2017-01-30T08:20:10.510Z,64.15
2017-01-30T08:20:51.142Z,63.96
2017-01-30T08:21:31.778Z,64.09
2017-01-30T08:22:12.506Z,64.25
2017-01-30T08:22:53.140Z,64.15
2017-01-30T08:23:33.770Z,64.09
2017-01-30T08:24:14.489Z,64.15
2017-01-30T08:24:55.112Z,64.05
2017-01-30T08:25:35.763Z,64.43
2017-01-30T08:26:16.441Z,64.34
2017-01-30T08:26:57.074Z,64.05
2017-01-30T08:27:37.706Z,64.05
2017-01-30T08:28:18.435Z,64.15
2017-01-30T08:28:59.062Z,64.82
2017-01-30T08:29:39.685Z,64.15
2017-01-30T08:30:20.391Z,64.34
2017-01-30T08:31:01.037Z,64.25
2017-01-30T08:31:41.680Z,64.05
2017-01-30T08:32:22.306Z,64.28
2017-01-30T08:33:02.932Z,64.15
2017-01-30T08:33:43.568Z,64.09
2017-01-30T08:34:24.185Z,64.25
2017-01-30T08:35:04.813Z,64.05
2017-01-30T08:35:45.444Z,64.25
2017-01-30T08:36:26.077Z,64.43
2017-01-30T08:37:06.713Z,64.34
2017-01-30T08:37:47.349Z,64.09
2017-01-30T08:38:27.966Z,64.09
2017-01-30T08:39:08.606Z,64.28
2017-01-30T08:39:49.229Z,64.43
2017-01-30T08:40:29.899Z,64.37
2017-01-30T08:41:10.528Z,64.37
2017-01-30T08:41:51.173Z,64.09
2017-01-30T08:42:31.911Z,64.18
2017-01-30T08:43:12.545Z,64.05
2017-01-30T08:43:53.174Z,64.37